createdAt,value
2022-12-13T00:00:12.126Z,-0.87
2022-12-13T00:01:11.138Z,-0.87
2022-12-13T00:02:11.131Z,-0.87
2022-12-13T00:03:11.152Z,-0.87
2022-12-13T00:04:11.094Z,-0.89
2022-12-13T00:05:11.270Z,-0.89
2022-12-13T00:06:11.032Z,-0.87
2022-12-13T00:07:11.060Z,-0.89
2022-12-13T00:08:11.084Z,-0.89
2022-12-13T00:09:11.022Z,-0.89
2022-12-13T00:10:10.987Z,-0.91
2022-12-13T00:11:10.973Z,-0.91
2022-12-13T00:12:10.972Z,-0.91
2022-12-13T00:13:10.961Z,-0.91
2022-12-13T00:14:10.952Z,-0.92
2022-12-13T00:15:10.955Z,-0.92
2022-12-13T00:16:10.979Z,-0.92
2022-12-13T00:17:10.910Z,-0.92
2022-12-13T00:18:10.900Z,-0.91
2022-12-13T00:19:10.890Z,-0.92
2022-12-13T00:20:10.851Z,-0.94
2022-12-13T00:21:10.850Z,-0.92
2022-12-13T00:22:10.833Z,-0.91
2022-12-13T00:23:10.836Z,-0.91
2022-12-13T00:24:10.818Z,-0.91
2022-12-13T00:25:10.831Z,-0.91
2022-12-13T00:26:10.781Z,-0.91
2022-12-13T00:27:10.782Z,-0.89
2022-12-13T00:28:10.754Z,-0.89
2022-12-13T00:29:10.754Z,-0.87
2022-12-13T00:30:10.752Z,-0.87
2022-12-13T00:31:51.260Z,-0.87
2022-12-13T00:32:11.812Z,-0.87
2022-12-13T00:33:10.713Z,-0.87
2022-12-13T00:34:10.681Z,-0.89
2022-12-13T00:35:10.699Z,-0.89
2022-12-13T00:36:10.660Z,-0.87
2022-12-13T00:37:10.679Z,-0.87
2022-12-13T00:38:10.641Z,-0.87
2022-12-13T00:39:10.630Z,-0.89
2022-12-13T00:40:10.607Z,-0.89
2022-12-13T00:41:10.621Z,-0.91
2022-12-13T00:42:10.594Z,-0.91
2022-12-13T00:43:10.581Z,-0.91
2022-12-13T00:44:10.561Z,-0.91
2022-12-13T00:45:10.559Z,-0.92
2022-12-13T00:46:10.597Z,-0.91
2022-12-13T00:47:10.534Z,-0.89
2022-12-13T00:48:10.518Z,-0.91
2022-12-13T00:49:10.513Z,-0.91
2022-12-13T00:50:10.480Z,-0.91
2022-12-13T00:51:10.474Z,-0.91
2022-12-13T00:52:10.469Z,-0.89
2022-12-13T00:53:10.452Z,-0.91
2022-12-13T00:54:10.434Z,-0.92
2022-12-13T00:55:10.433Z,-0.91
2022-12-13T00:56:10.419Z,-0.91
2022-12-13T00:57:10.441Z,-0.89
2022-12-13T00:58:10.382Z,-0.91
2022-12-13T00:59:10.381Z,-0.91
2022-12-13T01:00:10.379Z,-0.91
2022-12-13T01:01:10.413Z,-0.92
2022-12-13T01:02:10.359Z,-0.89
2022-12-13T01:03:10.378Z,-0.91
2022-12-13T01:04:10.312Z,-0.89
2022-12-13T01:05:10.301Z,-0.87
2022-12-13T01:06:15.433Z,-0.87
2022-12-13T01:07:11.298Z,-0.87
2022-12-13T01:08:10.274Z,-0.87
2022-12-13T01:09:10.261Z,-0.87
2022-12-13T01:10:10.228Z,-0.87
2022-12-13T01:11:10.218Z,-0.87
2022-12-13T01:12:10.230Z,-0.86
2022-12-13T01:13:10.221Z,-0.86
2022-12-13T01:14:10.190Z,-0.89
2022-12-13T01:15:10.182Z,-0.89
2022-12-13T01:16:10.162Z,-0.87
2022-12-13T01:17:10.230Z,-0.87
2022-12-13T01:18:10.128Z,-0.87
2022-12-13T01:19:10.118Z,-0.87
2022-12-13T01:20:10.114Z,-0.84
2022-12-13T01:21:10.102Z,-0.86
2022-12-13T01:22:10.097Z,-0.84
2022-12-13T01:23:10.080Z,-0.86
2022-12-13T01:24:10.059Z,-0.86
2022-12-13T01:25:10.077Z,-0.84
2022-12-13T01:26:10.043Z,-0.86
2022-12-13T01:27:10.040Z,-0.89
2022-12-13T01:28:10.061Z,-0.86
2022-12-13T01:29:10.009Z,-0.87
2022-12-13T01:30:09.978Z,-0.87
2022-12-13T01:31:10.011Z,-0.87
2022-12-13T01:32:09.948Z,-0.89
2022-12-13T01:33:14.562Z,-0.87
2022-12-13T01:34:09.939Z,-0.86
2022-12-13T01:35:09.929Z,-0.86
2022-12-13T01:36:09.908Z,-0.86
2022-12-13T01:37:09.891Z,-0.84
2022-12-13T01:38:16.205Z,-0.84
2022-12-13T01:39:15.282Z,-0.84
2022-12-13T01:40:16.258Z,-0.83
2022-12-13T01:41:17.616Z,-0.84
2022-12-13T01:42:10.829Z,-0.83
2022-12-13T01:43:13.952Z,-0.84
2022-12-13T01:44:10.828Z,-0.84
2022-12-13T01:45:09.819Z,-0.81
2022-12-13T01:46:09.807Z,-0.83
2022-12-13T01:47:09.776Z,-0.81
2022-12-13T01:48:09.747Z,-0.83
2022-12-13T01:49:20.308Z,-0.81
2022-12-13T01:50:10.741Z,-0.81
2022-12-13T01:51:09.732Z,-0.83
2022-12-13T01:52:09.698Z,-0.81
2022-12-13T01:53:09.695Z,-0.78
2022-12-13T01:54:09.679Z,-0.80
2022-12-13T01:55:09.681Z,-0.80
2022-12-13T01:56:09.669Z,-0.80
2022-12-13T01:57:09.666Z,-0.81
2022-12-13T01:58:09.632Z,-0.81
2022-12-13T01:59:09.626Z,-0.80
2022-12-13T02:00:10.610Z,-0.78
2022-12-13T02:01:09.685Z,-0.80
2022-12-13T02:02:09.572Z,-0.80
2022-12-13T02:03:09.577Z,-0.80
2022-12-13T02:04:10.556Z,-0.81
2022-12-13T02:05:09.655Z,-0.83
2022-12-13T02:06:09.534Z,-0.80
2022-12-13T02:07:09.528Z,-0.80
2022-12-13T02:08:09.514Z,-0.80
2022-12-13T02:09:09.494Z,-0.80
2022-12-13T02:10:09.486Z,-0.78
2022-12-13T02:11:09.498Z,-0.77
2022-12-13T02:12:09.456Z,-0.75
2022-12-13T02:13:09.464Z,-0.77
2022-12-13T02:14:09.439Z,-0.77
2022-12-13T02:15:09.436Z,-0.77
2022-12-13T02:16:09.453Z,-0.77
2022-12-13T02:17:09.416Z,-0.77
2022-12-13T02:18:09.413Z,-0.75
2022-12-13T02:19:09.374Z,-0.75
2022-12-13T02:20:09.344Z,-0.73
2022-12-13T02:21:09.379Z,-0.73
2022-12-13T02:22:09.345Z,-0.75
2022-12-13T02:23:09.337Z,-0.73
2022-12-13T02:24:09.466Z,-0.73
2022-12-13T02:25:09.307Z,-0.75
2022-12-13T02:26:09.277Z,-0.75
2022-12-13T02:27:09.359Z,-0.73
2022-12-13T02:28:30.646Z,-0.73
2022-12-13T02:29:10.255Z,-0.70
2022-12-13T02:30:09.234Z,-0.72
2022-12-13T02:31:09.252Z,-0.73
2022-12-13T02:32:09.204Z,-0.73
2022-12-13T02:33:09.214Z,-0.73
2022-12-13T02:34:09.178Z,-0.73
2022-12-13T02:35:09.186Z,-0.73
2022-12-13T02:36:09.165Z,-0.72
2022-12-13T02:37:17.939Z,-0.72
2022-12-13T02:38:10.158Z,-0.72
2022-12-13T02:39:09.125Z,-0.72
2022-12-13T02:40:09.111Z,-0.72
2022-12-13T02:41:09.115Z,-0.72
2022-12-13T02:42:09.074Z,-0.69
2022-12-13T02:43:10.073Z,-0.70
2022-12-13T02:44:21.792Z,-0.70
2022-12-13T02:45:10.919Z,-0.70
2022-12-13T02:46:09.056Z,-0.69
2022-12-13T02:47:21.783Z,-0.69
2022-12-13T02:48:10.005Z,-0.69
2022-12-13T02:49:09.007Z,-0.68
2022-12-13T02:50:08.973Z,-0.68
2022-12-13T02:51:08.993Z,-0.69
2022-12-13T02:52:08.953Z,-0.69
2022-12-13T02:53:08.950Z,-0.69
2022-12-13T02:54:08.963Z,-0.69
2022-12-13T02:55:08.936Z,-0.68
2022-12-13T02:56:08.950Z,-0.68
2022-12-13T02:57:08.901Z,-0.68
2022-12-13T02:58:08.871Z,-0.68
2022-12-13T02:59:08.881Z,-0.68
2022-12-13T03:00:08.841Z,-0.69
2022-12-13T03:01:28.100Z,-0.69
2022-12-13T03:02:10.833Z,-0.68
2022-12-13T03:03:08.883Z,-0.69
2022-12-13T03:04:08.851Z,-0.69
2022-12-13T03:05:08.801Z,-0.70
2022-12-13T03:06:08.778Z,-0.69
2022-12-13T03:07:08.771Z,-0.70
2022-12-13T03:08:08.794Z,-0.70
2022-12-13T03:09:08.750Z,-0.69
2022-12-13T03:10:08.731Z,-0.72
2022-12-13T03:11:08.722Z,-0.72
2022-12-13T03:12:08.700Z,-0.72
2022-12-13T03:13:08.691Z,-0.72
2022-12-13T03:14:08.681Z,-0.70
2022-12-13T03:15:08.668Z,-0.70
2022-12-13T03:16:08.685Z,-0.70
2022-12-13T03:17:08.658Z,-0.72
2022-12-13T03:18:08.627Z,-0.70
2022-12-13T03:19:08.664Z,-0.69
2022-12-13T03:20:12.769Z,-0.70
2022-12-13T03:21:09.601Z,-0.69
2022-12-13T03:22:08.580Z,-0.69
2022-12-13T03:23:08.581Z,-0.69
2022-12-13T03:24:08.570Z,-0.69
2022-12-13T03:25:08.527Z,-0.69
2022-12-13T03:26:08.540Z,-0.69
2022-12-13T03:27:08.570Z,-0.70
2022-12-13T03:28:08.517Z,-0.69
2022-12-13T03:29:08.491Z,-0.69
2022-12-13T03:30:08.509Z,-0.70
2022-12-13T03:31:08.521Z,-0.70
2022-12-13T03:32:08.469Z,-0.70
2022-12-13T03:33:08.440Z,-0.70
2022-12-13T03:34:08.458Z,-0.68
2022-12-13T03:35:22.168Z,-0.68
2022-12-13T03:36:09.410Z,-0.69
2022-12-13T03:37:08.388Z,-0.68
2022-12-13T03:38:08.388Z,-0.70
2022-12-13T03:39:08.360Z,-0.72
2022-12-13T03:40:08.370Z,-0.72
2022-12-13T03:41:08.339Z,-0.72
2022-12-13T03:42:08.341Z,-0.69
2022-12-13T03:43:08.317Z,-0.70
2022-12-13T03:44:08.327Z,-0.70
2022-12-13T03:45:08.288Z,-0.70
2022-12-13T03:46:08.349Z,-0.70
2022-12-13T03:47:08.279Z,-0.72
2022-12-13T03:48:08.271Z,-0.73
2022-12-13T03:49:10.430Z,-0.75
2022-12-13T03:50:27.084Z,-0.75
2022-12-13T03:51:09.218Z,-0.73
2022-12-13T03:52:08.208Z,-0.73
2022-12-13T03:53:08.186Z,-0.73
2022-12-13T03:54:09.196Z,-0.75
2022-12-13T03:55:08.158Z,-0.75
2022-12-13T03:56:08.166Z,-0.75
2022-12-13T03:57:08.138Z,-0.73
2022-12-13T03:58:08.224Z,-0.75
2022-12-13T03:59:08.127Z,-0.77
2022-12-13T04:00:08.295Z,-0.78
2022-12-13T04:01:08.102Z,-0.77
2022-12-13T04:02:08.132Z,-0.77
2022-12-13T04:03:08.265Z,-0.77
2022-12-13T04:04:08.078Z,-0.78
2022-12-13T04:05:08.090Z,-0.77
2022-12-13T04:06:08.045Z,-0.78
2022-12-13T04:07:22.115Z,-0.77
2022-12-13T04:08:22.352Z,-0.77
2022-12-13T04:09:08.985Z,-0.78
2022-12-13T04:10:26.042Z,-0.75
2022-12-13T04:11:08.977Z,-0.77
2022-12-13T04:12:07.964Z,-0.75
2022-12-13T04:13:07.935Z,-0.75
2022-12-13T04:14:07.936Z,-0.73
2022-12-13T04:15:07.918Z,-0.75
2022-12-13T04:16:07.931Z,-0.75
2022-12-13T04:17:07.907Z,-0.77
2022-12-13T04:18:07.887Z,-0.78
2022-12-13T04:19:07.876Z,-0.75
2022-12-13T04:20:07.865Z,-0.75
2022-12-13T04:21:07.857Z,-0.75
2022-12-13T04:22:07.838Z,-0.75
2022-12-13T04:23:10.265Z,-0.73
2022-12-13T04:24:07.834Z,-0.73
2022-12-13T04:25:07.785Z,-0.73
2022-12-13T04:26:07.785Z,-0.72
2022-12-13T04:27:07.762Z,-0.72
2022-12-13T04:28:07.767Z,-0.73
2022-12-13T04:29:07.755Z,-0.73
2022-12-13T04:30:07.746Z,-0.73
2022-12-13T04:31:07.777Z,-0.73
2022-12-13T04:32:26.749Z,-0.75
2022-12-13T04:33:08.694Z,-0.72
2022-12-13T04:34:07.693Z,-0.72
2022-12-13T04:35:07.666Z,-0.73
2022-12-13T04:36:07.664Z,-0.70
2022-12-13T04:37:07.642Z,-0.70
2022-12-13T04:38:07.624Z,-0.70
2022-12-13T04:39:22.711Z,-0.72
2022-12-13T04:40:08.624Z,-0.72
2022-12-13T04:41:07.607Z,-0.72
2022-12-13T04:42:07.594Z,-0.70
2022-12-13T04:43:07.574Z,-0.70
2022-12-13T04:44:07.587Z,-0.68
2022-12-13T04:45:08.555Z,-0.70
2022-12-13T04:46:07.588Z,-0.70
2022-12-13T04:47:07.516Z,-0.69
2022-12-13T04:48:07.514Z,-0.69
2022-12-13T04:49:07.493Z,-0.68
2022-12-13T04:50:07.493Z,-0.66
2022-12-13T04:51:07.482Z,-0.66
2022-12-13T04:52:07.462Z,-0.66
2022-12-13T04:53:07.436Z,-0.68
2022-12-13T04:54:24.120Z,-0.65
2022-12-13T04:55:08.423Z,-0.65
2022-12-13T04:56:07.444Z,-0.65
2022-12-13T04:57:07.397Z,-0.65
2022-12-13T04:58:07.404Z,-0.63
2022-12-13T04:59:07.395Z,-0.63
2022-12-13T05:00:07.382Z,-0.63
2022-12-13T05:01:07.424Z,-0.62
2022-12-13T05:02:07.400Z,-0.63
2022-12-13T05:03:07.324Z,-0.65
2022-12-13T05:04:07.332Z,-0.65
2022-12-13T05:05:07.302Z,-0.63
2022-12-13T05:06:07.290Z,-0.62
2022-12-13T05:07:08.264Z,-0.62
2022-12-13T05:08:07.306Z,-0.66
2022-12-13T05:09:11.397Z,-0.66
2022-12-13T05:10:07.255Z,-0.65
2022-12-13T05:11:07.220Z,-0.66
2022-12-13T05:12:22.755Z,-0.65
2022-12-13T05:13:08.196Z,-0.65
2022-12-13T05:14:07.192Z,-0.66
2022-12-13T05:15:07.183Z,-0.68
2022-12-13T05:16:07.226Z,-0.65
2022-12-13T05:17:07.163Z,-0.65
2022-12-13T05:18:09.762Z,-0.65
2022-12-13T05:19:07.121Z,-0.65
2022-12-13T05:20:07.131Z,-0.63
2022-12-13T05:21:07.099Z,-0.62
2022-12-13T05:22:07.102Z,-0.62
2022-12-13T05:23:07.077Z,-0.60
2022-12-13T05:24:07.060Z,-0.62
2022-12-13T05:25:07.038Z,-0.62
2022-12-13T05:26:07.060Z,-0.59
2022-12-13T05:27:24.858Z,-0.59
2022-12-13T05:28:08.845Z,-0.57
2022-12-13T05:29:08.001Z,-0.57
2022-12-13T05:30:06.992Z,-0.55
2022-12-13T05:31:23.029Z,-0.57
2022-12-13T05:32:08.061Z,-0.54
2022-12-13T05:33:06.940Z,-0.52
2022-12-13T05:34:06.940Z,-0.52
2022-12-13T05:35:06.918Z,-0.51
2022-12-13T05:36:06.923Z,-0.51
2022-12-13T05:37:06.931Z,-0.51
2022-12-13T05:38:06.900Z,-0.52
2022-12-13T05:39:06.872Z,-0.54
2022-12-13T05:40:07.921Z,-0.52
2022-12-13T05:41:06.861Z,-0.52
2022-12-13T05:42:06.841Z,-0.55
2022-12-13T05:43:21.430Z,-0.62
2022-12-13T05:44:07.819Z,-0.65
2022-12-13T05:45:06.798Z,-0.66
2022-12-13T05:46:06.818Z,-0.68
2022-12-13T05:47:06.768Z,-0.69
2022-12-13T05:48:06.788Z,-0.69
2022-12-13T05:49:06.750Z,-0.70
2022-12-13T05:50:06.761Z,-0.70
2022-12-13T05:51:09.794Z,-0.69
2022-12-13T05:52:06.721Z,-0.68
2022-12-13T05:53:06.700Z,-0.69
2022-12-13T05:54:06.709Z,-0.70
2022-12-13T05:55:06.671Z,-0.70
2022-12-13T05:56:06.670Z,-0.69
2022-12-13T05:57:06.640Z,-0.68
2022-12-13T05:58:06.652Z,-0.66
2022-12-13T05:59:07.658Z,-0.70
2022-12-13T06:00:06.627Z,-0.70
2022-12-13T06:01:07.638Z,-0.70
2022-12-13T06:02:06.721Z,-0.70
2022-12-13T06:03:06.677Z,-0.69
2022-12-13T06:04:06.560Z,-0.66
2022-12-13T06:05:06.557Z,-0.68
2022-12-13T06:06:06.547Z,-0.68
2022-12-13T06:07:06.519Z,-0.68
2022-12-13T06:08:24.855Z,-0.70
2022-12-13T06:09:07.518Z,-0.70
2022-12-13T06:10:09.675Z,-0.72
2022-12-13T06:11:11.261Z,-0.72
2022-12-13T06:12:30.805Z,-0.73
2022-12-13T06:13:22.022Z,-0.72
2022-12-13T06:14:21.845Z,-0.73
2022-12-13T06:15:21.983Z,-0.73
2022-12-13T06:16:07.441Z,-0.72
2022-12-13T06:17:07.497Z,-0.70
2022-12-13T06:18:06.398Z,-0.70
2022-12-13T06:19:06.417Z,-0.70
2022-12-13T06:20:22.941Z,-0.72
2022-12-13T06:21:07.371Z,-0.70
2022-12-13T06:22:06.347Z,-0.70
2022-12-13T06:23:06.317Z,-0.70
2022-12-13T06:24:06.327Z,-0.70
2022-12-13T06:25:06.331Z,-0.70
2022-12-13T06:26:08.143Z,-0.66
2022-12-13T06:27:06.280Z,-0.65
2022-12-13T06:28:06.281Z,-0.63
2022-12-13T06:29:06.254Z,-0.65
2022-12-13T06:30:06.257Z,-0.66
2022-12-13T06:31:06.337Z,-0.65
2022-12-13T06:32:06.216Z,-0.63
2022-12-13T06:33:06.195Z,-0.60
2022-12-13T06:34:14.262Z,-0.57
2022-12-13T06:35:27.257Z,-0.54
2022-12-13T06:36:07.186Z,-0.52
2022-12-13T06:37:06.168Z,-0.52
2022-12-13T06:38:06.148Z,-0.57
2022-12-13T06:39:07.166Z,-0.60
2022-12-13T06:40:06.115Z,-0.60
2022-12-13T06:41:06.106Z,-0.60
2022-12-13T06:42:06.390Z,-0.62
2022-12-13T06:43:06.093Z,-0.63
2022-12-13T06:44:06.075Z,-0.63
2022-12-13T06:45:06.045Z,-0.60
2022-12-13T06:46:06.141Z,-0.60
2022-12-13T06:47:11.551Z,-0.60
2022-12-13T06:48:07.026Z,-0.59
2022-12-13T06:49:06.045Z,-0.57
2022-12-13T06:50:06.127Z,-0.57
2022-12-13T06:51:05.985Z,-0.57
2022-12-13T06:52:05.978Z,-0.60
2022-12-13T06:53:05.966Z,-0.60
2022-12-13T06:54:05.958Z,-0.62
2022-12-13T06:55:05.935Z,-0.60
2022-12-13T06:56:05.925Z,-0.60
2022-12-13T06:57:05.893Z,-0.59
2022-12-13T06:58:05.944Z,-0.59
2022-12-13T06:59:05.936Z,-0.57
2022-12-13T07:00:05.897Z,-0.55
2022-12-13T07:01:05.894Z,-0.55
2022-12-13T07:02:06.915Z,-0.57
2022-12-13T07:03:06.883Z,-0.59
2022-12-13T07:04:05.835Z,-0.60
2022-12-13T07:05:06.805Z,-0.60
2022-12-13T07:06:05.812Z,-0.60
2022-12-13T07:07:05.782Z,-0.59
2022-12-13T07:08:05.831Z,-0.57
2022-12-13T07:09:05.785Z,-0.59
2022-12-13T07:10:05.779Z,-0.57
2022-12-13T07:11:06.745Z,-0.57
2022-12-13T07:12:05.738Z,-0.55
2022-12-13T07:13:06.093Z,-0.57
2022-12-13T07:14:05.703Z,-0.55
2022-12-13T07:15:05.676Z,-0.55
2022-12-13T07:16:05.751Z,-0.57
2022-12-13T07:17:05.652Z,-0.55
2022-12-13T07:18:05.655Z,-0.57
2022-12-13T07:19:05.642Z,-0.55
2022-12-13T07:20:06.657Z,-0.57
2022-12-13T07:21:05.616Z,-0.55
2022-12-13T07:22:05.944Z,-0.55
2022-12-13T07:23:05.583Z,-0.55
2022-12-13T07:24:05.584Z,-0.52
2022-12-13T07:25:05.553Z,-0.54
2022-12-13T07:26:05.574Z,-0.52
2022-12-13T07:27:05.533Z,-0.55
2022-12-13T07:28:05.604Z,-0.54
2022-12-13T07:29:05.501Z,-0.54
2022-12-13T07:30:05.493Z,-0.52
2022-12-13T07:31:05.651Z,-0.52
2022-12-13T07:32:05.484Z,-0.51
2022-12-13T07:33:05.451Z,-0.52
2022-12-13T07:34:05.482Z,-0.51
2022-12-13T07:35:05.442Z,-0.51
2022-12-13T07:36:05.439Z,-0.50
2022-12-13T07:37:05.403Z,-0.50
2022-12-13T07:38:05.415Z,-0.51
2022-12-13T07:39:05.382Z,-0.52
2022-12-13T07:40:05.374Z,-0.55
2022-12-13T07:41:05.403Z,-0.59
2022-12-13T07:42:05.345Z,-0.60
2022-12-13T07:43:05.344Z,-0.62
2022-12-13T07:44:05.336Z,-0.62
2022-12-13T07:45:05.319Z,-0.63
2022-12-13T07:46:05.347Z,-0.62
2022-12-13T07:47:05.334Z,-0.62
2022-12-13T07:48:05.268Z,-0.63
2022-12-13T07:49:05.328Z,-0.63
2022-12-13T07:50:05.240Z,-0.65
2022-12-13T07:51:06.287Z,-0.66
2022-12-13T07:52:05.284Z,-0.63
2022-12-13T07:53:05.219Z,-0.65
2022-12-13T07:54:06.338Z,-0.63
2022-12-13T07:55:05.211Z,-0.60
2022-12-13T07:56:05.177Z,-0.60
2022-12-13T07:57:05.172Z,-0.62
2022-12-13T07:58:05.157Z,-0.63
2022-12-13T07:59:05.170Z,-0.65
2022-12-13T08:00:05.119Z,-0.63
2022-12-13T08:01:05.139Z,-0.65
2022-12-13T08:02:05.138Z,-0.65
2022-12-13T08:03:05.111Z,-0.63
2022-12-13T08:04:05.091Z,-0.60
2022-12-13T08:05:25.868Z,-0.55
2022-12-13T08:06:06.106Z,-0.50
2022-12-13T08:07:05.040Z,-0.45
2022-12-13T08:08:05.113Z,-0.42
2022-12-13T08:09:05.019Z,-0.44
2022-12-13T08:10:05.140Z,-0.47
2022-12-13T08:11:05.006Z,-0.45
2022-12-13T08:12:04.975Z,-0.37
2022-12-13T08:13:05.127Z,-0.39
2022-12-13T08:14:04.948Z,-0.45
2022-12-13T08:15:09.295Z,-0.48
2022-12-13T08:16:06.019Z,-0.54
2022-12-13T08:17:05.914Z,-0.54
2022-12-13T08:18:04.888Z,-0.55
2022-12-13T08:19:04.922Z,-0.57
2022-12-13T08:20:04.889Z,-0.51
2022-12-13T08:21:14.118Z,-0.50
2022-12-13T08:22:05.860Z,-0.48
2022-12-13T08:23:05.847Z,-0.47
2022-12-13T08:24:04.821Z,-0.47
2022-12-13T08:25:04.829Z,-0.50
2022-12-13T08:26:04.814Z,-0.48
2022-12-13T08:27:04.821Z,-0.51
2022-12-13T08:28:04.788Z,-0.54
2022-12-13T08:29:04.781Z,-0.54
2022-12-13T08:30:04.750Z,-0.54
2022-12-13T08:31:04.843Z,-0.51
2022-12-13T08:32:04.733Z,-0.48
2022-12-13T08:33:05.515Z,-0.47
2022-12-13T08:34:04.698Z,-0.48
2022-12-13T08:35:04.688Z,-0.48
2022-12-13T08:36:04.669Z,-0.45
2022-12-13T08:37:04.915Z,-0.47
2022-12-13T08:38:04.657Z,-0.47
2022-12-13T08:39:04.686Z,-0.47
2022-12-13T08:40:04.631Z,-0.48
2022-12-13T08:41:04.641Z,-0.47
2022-12-13T08:42:15.337Z,-0.51
2022-12-13T08:43:05.599Z,-0.50
2022-12-13T08:44:04.616Z,-0.51
2022-12-13T08:45:04.580Z,-0.48
2022-12-13T08:46:04.550Z,-0.45
2022-12-13T08:47:04.610Z,-0.41
2022-12-13T08:48:04.528Z,-0.47
2022-12-13T08:49:04.576Z,-0.45
2022-12-13T08:50:04.777Z,-0.33
2022-12-13T08:51:04.508Z,-0.30
2022-12-13T08:52:04.487Z,-0.34
2022-12-13T08:53:04.500Z,-0.34
2022-12-13T08:54:10.006Z,-0.33
2022-12-13T08:55:05.448Z,-0.31
2022-12-13T08:56:04.439Z,-0.33
2022-12-13T08:57:04.425Z,-0.36
2022-12-13T08:58:04.398Z,-0.39
2022-12-13T08:59:04.397Z,-0.42
2022-12-13T09:00:04.377Z,-0.39
2022-12-13T09:01:04.437Z,-0.36
2022-12-13T09:02:05.368Z,-0.34
2022-12-13T09:03:04.347Z,-0.34
2022-12-13T09:04:04.327Z,-0.34
2022-12-13T09:05:04.318Z,-0.33
2022-12-13T09:06:04.309Z,-0.33
2022-12-13T09:07:04.297Z,-0.30
2022-12-13T09:08:22.902Z,-0.27
2022-12-13T09:09:05.286Z,-0.27
2022-12-13T09:10:07.234Z,-0.30
2022-12-13T09:11:10.644Z,-0.27
2022-12-13T09:12:10.965Z,-0.26
2022-12-13T09:13:11.738Z,-0.23
2022-12-13T09:14:05.206Z,-0.19
2022-12-13T09:15:04.195Z,-0.23
2022-12-13T09:16:05.279Z,-0.23
2022-12-13T09:17:05.307Z,-0.23
2022-12-13T09:18:05.459Z,-0.18
2022-12-13T09:19:24.645Z,-0.16
2022-12-13T09:20:10.039Z,-0.12
2022-12-13T09:21:10.374Z,-0.12
2022-12-13T09:22:05.133Z,-0.16
2022-12-13T09:23:04.126Z,-0.16
2022-12-13T09:24:04.079Z,-0.19
2022-12-13T09:25:04.073Z,-0.18
2022-12-13T09:26:05.648Z,-0.18
2022-12-13T09:27:09.317Z,-0.24
2022-12-13T09:28:05.064Z,-0.24
2022-12-13T09:29:10.677Z,-0.19
2022-12-13T09:30:05.028Z,-0.13
2022-12-13T09:31:04.041Z,-0.18
2022-12-13T09:32:04.030Z,-0.13
2022-12-13T09:33:17.529Z,-0.06
2022-12-13T09:34:05.013Z,-0.09
2022-12-13T09:35:03.954Z,-0.09
2022-12-13T09:36:03.917Z,-0.11
2022-12-13T09:37:03.926Z,-0.12
2022-12-13T09:38:03.907Z,-0.19
2022-12-13T09:39:03.895Z,-0.16
2022-12-13T09:40:15.994Z,-0.15
2022-12-13T09:41:04.888Z,-0.18
2022-12-13T09:42:10.291Z,-0.24
2022-12-13T09:43:13.438Z,-0.24
2022-12-13T09:44:04.936Z,-0.29
2022-12-13T09:45:04.233Z,-0.36
2022-12-13T09:46:03.886Z,-0.39
2022-12-13T09:47:03.921Z,-0.34
2022-12-13T09:48:08.511Z,-0.33
2022-12-13T09:49:04.800Z,-0.36
2022-12-13T09:50:04.752Z,-0.41
2022-12-13T09:51:18.073Z,-0.39
2022-12-13T09:52:10.608Z,-0.39
2022-12-13T09:53:04.723Z,-0.39
2022-12-13T09:54:04.675Z,-0.37
2022-12-13T09:55:09.295Z,-0.37
2022-12-13T09:56:10.909Z,-0.39
2022-12-13T09:57:04.655Z,-0.41
2022-12-13T09:58:03.633Z,-0.36
2022-12-13T09:59:03.641Z,-0.34
2022-12-13T10:00:03.725Z,-0.34
2022-12-13T10:01:03.702Z,-0.33
2022-12-13T10:02:03.671Z,-0.34
2022-12-13T10:03:10.592Z,-0.34
2022-12-13T10:04:03.591Z,-0.41
2022-12-13T10:05:03.553Z,-0.44
2022-12-13T10:06:03.520Z,-0.47
2022-12-13T10:07:03.512Z,-0.50
2022-12-13T10:08:03.499Z,-0.51
2022-12-13T10:09:03.501Z,-0.50
2022-12-13T10:10:03.491Z,-0.50
2022-12-13T10:11:03.468Z,-0.50
2022-12-13T10:12:03.450Z,-0.50
2022-12-13T10:13:03.442Z,-0.51
2022-12-13T10:14:03.423Z,-0.51
2022-12-13T10:15:03.442Z,-0.52
2022-12-13T10:16:03.466Z,-0.52
2022-12-13T10:17:03.424Z,-0.47
2022-12-13T10:18:03.424Z,-0.44
2022-12-13T10:19:03.370Z,-0.47
2022-12-13T10:20:03.367Z,-0.45
2022-12-13T10:21:03.422Z,-0.45
2022-12-13T10:22:03.319Z,-0.47
2022-12-13T10:24:25.974Z,-0.50
2022-12-13T10:25:04.293Z,-0.51
2022-12-13T10:26:03.867Z,-0.52
2022-12-13T10:27:03.289Z,-0.55
2022-12-13T10:28:03.266Z,-0.55
2022-12-13T10:29:03.258Z,-0.54
2022-12-13T10:30:03.240Z,-0.52
2022-12-13T10:31:03.221Z,-0.54
2022-12-13T10:32:03.330Z,-0.54
2022-12-13T10:33:03.202Z,-0.52
2022-12-13T10:34:03.178Z,-0.52
2022-12-13T10:35:03.184Z,-0.54
2022-12-13T10:36:03.158Z,-0.54
2022-12-13T10:37:03.177Z,-0.57
2022-12-13T10:38:03.118Z,-0.54
2022-12-13T10:39:03.136Z,-0.50
2022-12-13T10:40:03.100Z,-0.50
2022-12-13T10:41:03.099Z,-0.48
2022-12-13T10:42:03.153Z,-0.45
2022-12-13T10:43:03.069Z,-0.41
2022-12-13T10:44:03.059Z,-0.41
2022-12-13T10:45:03.049Z,-0.37
2022-12-13T10:46:03.085Z,-0.36
2022-12-13T10:47:03.029Z,-0.34
2022-12-13T10:48:04.334Z,-0.33
2022-12-13T10:49:03.008Z,-0.31
2022-12-13T10:50:02.977Z,-0.29
2022-12-13T10:51:03.097Z,-0.37
2022-12-13T10:52:02.951Z,-0.39
2022-12-13T10:53:03.010Z,-0.36
2022-12-13T10:54:02.940Z,-0.37
2022-12-13T10:55:02.948Z,-0.30
2022-12-13T10:56:02.945Z,-0.31
2022-12-13T10:57:02.902Z,-0.33
2022-12-13T10:58:02.893Z,-0.30
2022-12-13T10:59:02.876Z,-0.26
2022-12-13T11:00:02.884Z,-0.23
2022-12-13T11:01:02.910Z,-0.19
2022-12-13T11:02:02.862Z,-0.18
2022-12-13T11:03:02.819Z,-0.24
2022-12-13T11:04:02.933Z,-0.27
2022-12-13T11:05:06.713Z,-0.31
2022-12-13T11:06:03.770Z,-0.33
2022-12-13T11:07:02.777Z,-0.36
2022-12-13T11:08:02.748Z,-0.31
2022-12-13T11:09:02.737Z,-0.30
2022-12-13T11:10:05.054Z,-0.29
2022-12-13T11:11:02.752Z,-0.29
2022-12-13T11:12:02.710Z,-0.23
2022-12-13T11:13:02.697Z,-0.26
2022-12-13T11:14:02.693Z,-0.24
2022-12-13T11:15:02.676Z,-0.24
2022-12-13T11:16:02.660Z,-0.24
2022-12-13T11:17:02.694Z,-0.23
2022-12-13T11:18:02.650Z,-0.23
2022-12-13T11:19:02.685Z,-0.26
2022-12-13T11:20:02.593Z,-0.24
2022-12-13T11:21:02.595Z,-0.23
2022-12-13T11:22:02.596Z,-0.18
2022-12-13T11:23:02.577Z,-0.13
2022-12-13T11:24:02.549Z,-0.11
2022-12-13T11:25:02.546Z,-0.05
2022-12-13T11:26:02.517Z,0.02
2022-12-13T11:27:02.540Z,0.06
2022-12-13T11:28:02.509Z,0.12
2022-12-13T11:29:02.505Z,0.15
2022-12-13T11:30:02.468Z,0.18
2022-12-13T11:31:02.467Z,0.09
2022-12-13T11:32:02.489Z,0.00
2022-12-13T11:33:02.460Z,-0.08
2022-12-13T11:34:02.420Z,-0.11
2022-12-13T11:35:02.749Z,-0.11
2022-12-13T11:36:02.397Z,-0.09
2022-12-13T11:37:02.397Z,-0.09
2022-12-13T11:38:02.367Z,-0.06
2022-12-13T11:39:02.357Z,-0.09
2022-12-13T11:40:02.367Z,-0.13
2022-12-13T11:41:02.328Z,-0.19
2022-12-13T11:42:02.327Z,-0.24
2022-12-13T11:43:02.321Z,-0.24
2022-12-13T11:44:13.917Z,-0.23
2022-12-13T11:45:02.285Z,-0.18
2022-12-13T11:46:02.306Z,-0.12
2022-12-13T11:47:02.275Z,-0.12
2022-12-13T11:48:02.251Z,-0.18
2022-12-13T11:49:02.249Z,-0.16
2022-12-13T11:50:02.212Z,-0.13
2022-12-13T11:51:02.206Z,-0.13
2022-12-13T11:52:02.183Z,-0.16
2022-12-13T11:53:02.193Z,-0.18
2022-12-13T11:54:02.190Z,-0.16
2022-12-13T11:55:02.147Z,-0.18
2022-12-13T11:56:02.151Z,-0.18
2022-12-13T11:57:02.118Z,-0.13
2022-12-13T11:58:02.128Z,-0.08
2022-12-13T11:59:03.916Z,-0.05
2022-12-13T12:00:03.105Z,-0.09
2022-12-13T12:01:02.067Z,-0.11
2022-12-13T12:02:04.844Z,-0.12
2022-12-13T12:03:02.138Z,-0.16
2022-12-13T12:04:02.144Z,-0.16
2022-12-13T12:05:02.063Z,-0.16
2022-12-13T12:06:02.047Z,-0.18
2022-12-13T12:07:17.777Z,-0.16
2022-12-13T12:08:32.104Z,-0.13
2022-12-13T12:09:02.995Z,-0.13
2022-12-13T12:10:01.964Z,-0.13
2022-12-13T12:11:01.956Z,-0.11
2022-12-13T12:12:01.986Z,-0.06
2022-12-13T12:13:01.927Z,-0.04
2022-12-13T12:14:01.936Z,0.00
2022-12-13T12:15:04.956Z,-0.01
2022-12-13T12:16:02.022Z,-0.05
2022-12-13T12:17:01.879Z,-0.05
2022-12-13T12:18:01.864Z,-0.01
2022-12-13T12:19:02.069Z,0.03
2022-12-13T12:20:01.876Z,0.05
2022-12-13T12:21:01.803Z,0.07
2022-12-13T12:22:13.630Z,0.07
2022-12-13T12:23:02.804Z,0.09
2022-12-13T12:24:01.787Z,0.07
2022-12-13T12:25:01.765Z,0.06
2022-12-13T12:26:04.700Z,0.09
2022-12-13T12:27:01.733Z,0.12
2022-12-13T12:28:01.753Z,0.13
2022-12-13T12:29:01.913Z,0.18
2022-12-13T12:30:01.701Z,0.13
2022-12-13T12:31:01.728Z,0.12
2022-12-13T12:32:01.693Z,0.10
2022-12-13T12:33:01.664Z,0.13
2022-12-13T12:34:01.684Z,0.13
2022-12-13T12:35:01.687Z,0.13
2022-12-13T12:36:01.644Z,0.15
2022-12-13T12:37:02.773Z,0.16
2022-12-13T12:38:01.629Z,0.18
2022-12-13T12:39:01.588Z,0.23
2022-12-13T12:40:01.613Z,0.23
2022-12-13T12:41:16.865Z,0.24
2022-12-13T12:42:02.568Z,0.23
2022-12-13T12:43:15.277Z,0.15
2022-12-13T12:44:02.547Z,0.10
2022-12-13T12:45:01.526Z,0.06
2022-12-13T12:46:01.619Z,0.05
2022-12-13T12:47:28.567Z,0.02
2022-12-13T12:48:58.497Z,-0.01
2022-12-13T12:49:03.122Z,-0.04
2022-12-13T12:50:01.458Z,0.02
2022-12-13T12:51:01.441Z,0.06
2022-12-13T12:52:01.425Z,0.09
2022-12-13T12:53:01.392Z,0.07
2022-12-13T12:54:01.412Z,0.12
2022-12-13T12:55:01.399Z,0.10